Time;durP1;ratioP1;P1;durP2;ratioP2;P2;SDS_P1;SDS_P2;PMS_P1;PMS_P2;Temp;Humidity;BMP_temperature;BMP_pressure;BME280_temperature;BME280_humidity;BME280_pressure;Samples;Min_cycle;Max_cycle;Signal;HPM_P1;HPM_P2
2023/10/10 00:00:49;;;;;;;0.80;0.40;;;;;;;-143.84;62.17;45054.78;5112069;28;20432;-63
2023/10/10 00:03:17;;;;;;;0.80;0.53;;;;;;;-143.84;61.84;45071.91;5113623;28;20441;-63
2023/10/10 00:05:45;;;;;;;1.57;0.70;;;;;;;-143.84;61.63;45068.13;5113247;28;21065;-63
2023/10/10 00:08:12;;;;;;;0.83;0.53;;;;;;;-143.84;61.34;45077.63;5113124;28;20443;-63
2023/10/10 00:10:50;;;;;;;1.00;0.60;;;;;;;-143.84;61.17;45056.69;5113935;28;20933;-62
2023/10/10 00:13:19;;;;;;;0.80;0.40;;;;;;;-143.84;61.12;45050.97;5114273;28;21027;-62
2023/10/10 00:15:51;;;;;;;1.87;1.20;;;;;;;-143.84;60.88;45068.13;5114288;28;20949;-62
2023/10/10 00:18:21;;;;;;;0.83;0.60;;;;;;;-143.84;60.84;45070.00;5113475;28;20445;-63
2023/10/10 00:21:06;;;;;;;0.80;0.50;;;;;;;-143.84;60.58;45075.72;5112936;28;20443;-63
2023/10/10 00:23:39;;;;;;;4.83;1.47;;;;;;;-143.84;60.35;45085.25;5113183;28;20449;-63
2023/10/10 00:26:12;;;;;;;1.50;0.70;;;;;;;-143.84;60.35;45083.34;5112785;28;20510;-63
2023/10/10 00:28:41;;;;;;;0.80;0.50;;;;;;;-143.84;60.09;45077.63;5112862;28;20529;-63
2023/10/10 00:31:11;;;;;;;0.80;0.50;;;;;;;-143.84;59.67;45073.81;5112603;28;20486;-63
2023/10/10 00:33:40;;;;;;;2.13;1.57;;;;;;;-143.84;59.87;45064.31;5112567;28;20545;-63
2023/10/10 00:36:11;;;;;;;1.73;0.97;;;;;;;-143.84;59.81;45052.88;5113084;28;20440;-61
2023/10/10 00:38:39;;;;;;;0.80;0.60;;;;;;;-143.84;59.67;45092.88;5113987;28;20955;-61
2023/10/10 00:41:10;;;;;;;2.00;1.33;;;;;;;-143.84;59.70;45073.81;5114074;28;20431;-62
2023/10/10 00:43:38;;;;;;;1.37;0.80;;;;;;;-143.84;59.78;45077.63;5113880;28;20509;-62
2023/10/10 00:46:07;;;;;;;1.00;0.50;;;;;;;-143.84;59.86;45049.06;5113656;28;20901;-62
2023/10/10 00:48:38;;;;;;;0.80;0.40;;;;;;;-143.84;59.60;45064.31;5113900;28;20525;-62
2023/10/10 00:51:10;;;;;;;0.80;0.50;;;;;;;-143.84;59.70;45083.34;5113629;28;20506;-62
2023/10/10 00:53:39;;;;;;;1.60;0.70;;;;;;;-143.84;59.77;45079.53;5113748;28;20520;-62
2023/10/10 00:56:08;;;;;;;2.00;1.03;;;;;;;-143.84;59.72;45058.59;5113435;28;20429;-62
2023/10/10 00:58:39;;;;;;;1.30;0.80;;;;;;;-143.84;59.98;45056.69;5113264;28;20448;-62
2023/10/10 01:01:10;;;;;;;0.80;0.30;;;;;;;-143.84;59.96;45073.81;5113721;28;20450;-60
2023/10/10 01:03:41;;;;;;;1.13;0.60;;;;;;;-143.84;60.11;45083.34;5112816;28;20536;-60
2023/10/10 01:06:13;;;;;;;0.80;0.40;;;;;;;-143.84;60.30;45075.72;5113411;28;20840;-61
2023/10/10 01:08:50;;;;;;;0.80;0.47;;;;;;;-143.84;60.41;45073.81;5113219;28;20500;-63
2023/10/10 01:11:19;;;;;;;1.27;0.97;;;;;;;-143.84;60.02;45108.09;5111706;28;20443;-63
2023/10/10 01:13:47;;;;;;;1.57;1.10;;;;;;;-143.84;60.21;45056.69;5112085;28;20437;-63
2023/10/10 01:16:14;;;;;;;0.80;0.47;;;;;;;-143.84;60.07;45071.91;5112355;28;20442;-60
2023/10/10 01:18:51;;;;;;;0.80;0.57;;;;;;;-143.84;60.52;45087.16;5112976;28;20485;-60
2023/10/10 01:21:28;;;;;;;1.23;0.60;;;;;;;-143.84;60.41;45083.34;5112210;28;20429;-63
2023/10/10 01:23:58;;;;;;;1.73;0.60;;;;;;;-143.84;60.49;45070.00;5111307;28;20932;-61
2023/10/10 01:26:28;;;;;;;0.80;0.50;;;;;;;-143.84;60.44;45090.97;5111299;28;20487;-63
2023/10/10 01:28:59;;;;;;;0.80;0.40;;;;;;;-143.84;60.47;45052.88;5111414;28;20477;-59
2023/10/10 01:31:30;;;;;;;0.80;0.60;;;;;;;-143.84;60.25;45050.97;5111622;28;20795;-59
2023/10/10 01:34:00;;;;;;;0.80;0.40;;;;;;;-143.84;60.01;45079.53;5111814;28;20951;-59
2023/10/10 01:36:30;;;;;;;0.80;0.40;;;;;;;-143.84;59.98;45049.06;5112166;28;20427;-59
2023/10/10 01:39:28;;;;;;;0.80;0.47;;;;;;;-143.84;60.07;45070.00;5112070;28;20446;-59
2023/10/10 01:41:55;;;;;;;1.00;0.70;;;;;;;-143.84;60.25;45085.25;5111745;28;20489;-59
2023/10/10 01:44:23;;;;;;;1.20;0.60;;;;;;;-143.84;60.22;45068.13;5112650;28;20437;-59
2023/10/10 01:46:54;;;;;;;1.00;0.67;;;;;;;-143.84;60.36;45077.63;5112244;28;20568;-59
2023/10/10 01:49:28;;;;;;;0.80;0.40;;;;;;;-143.84;60.26;45070.00;5112348;28;20434;-59
2023/10/10 01:51:58;;;;;;;0.80;0.50;;;;;;;-143.84;60.26;45087.16;5112405;28;20447;-59
2023/10/10 01:54:35;;;;;;;0.90;0.60;;;;;;;-143.84;60.33;45066.22;5112198;28;21132;-59
2023/10/10 01:57:06;;;;;;;0.80;0.50;;;;;;;-143.84;60.12;45064.31;5112112;28;20435;-59
2023/10/10 01:59:37;;;;;;;0.80;0.50;;;;;;;-143.84;60.35;45071.91;5111974;28;20441;-59
2023/10/10 02:02:08;;;;;;;0.80;0.50;;;;;;;-143.84;60.18;45104.28;5112250;28;20479;-59
2023/10/10 02:04:36;;;;;;;0.80;0.40;;;;;;;-143.84;59.91;45075.72;5112139;28;21047;-59
2023/10/10 02:07:07;;;;;;;0.80;0.40;;;;;;;-143.84;59.54;45062.41;5112084;28;20552;-59
2023/10/10 02:09:36;;;;;;;0.80;0.40;;;;;;;-143.84;59.60;45077.63;5112426;28;20469;-59
2023/10/10 02:12:12;;;;;;;0.80;0.40;;;;;;;-143.84;59.41;45087.16;5111690;28;20438;-59
2023/10/10 02:14:43;;;;;;;1.50;0.63;;;;;;;-143.84;59.39;45068.13;5111883;28;20523;-59
2023/10/10 02:17:22;;;;;;;0.90;0.60;;;;;;;-143.84;59.24;45068.13;5111996;28;20458;-59
2023/10/10 02:20:17;;;;;;;0.80;0.50;;;;;;;-143.84;59.03;45066.22;5111693;28;20443;-59
2023/10/10 02:22:51;;;;;;;1.00;0.87;;;;;;;-143.84;58.84;45066.22;5111192;28;20456;-59
2023/10/10 02:28:05;;;;;;;1.17;0.97;;;;;;;-143.84;58.90;45075.72;5111979;28;20440;-59
2023/10/10 02:30:38;;;;;;;2.60;1.00;;;;;;;-143.84;58.77;45083.34;5111216;28;20440;-60
2023/10/10 02:33:15;;;;;;;1.00;0.60;;;;;;;-143.84;58.71;45081.44;5110435;28;20478;-61
2023/10/10 02:35:55;;;;;;;0.90;0.67;;;;;;;-143.84;58.62;45070.00;5110357;28;20481;-60
2023/10/10 02:38:31;;;;;;;0.80;0.43;;;;;;;-143.84;58.45;45068.13;5110265;28;20947;-60
2023/10/10 02:41:14;;;;;;;0.80;0.40;;;;;;;-143.84;58.42;45070.00;5110828;28;20821;-59
2023/10/10 02:43:55;;;;;;;1.10;0.70;;;;;;;-143.84;57.98;45070.00;5111139;28;20465;-59
2023/10/10 02:46:33;;;;;;;1.83;0.80;;;;;;;-143.84;57.62;45068.13;5111168;28;20588;-59
2023/10/10 02:49:09;;;;;;;0.80;0.40;;;;;;;-143.84;57.26;45075.72;5110880;28;20442;-59
2023/10/10 02:51:40;;;;;;;0.80;0.40;;;;;;;-143.84;56.86;45050.97;5111025;28;20531;-59
2023/10/10 02:54:32;;;;;;;1.10;0.90;;;;;;;-143.84;56.53;45075.72;5111013;28;20464;-59
2023/10/10 02:57:26;;;;;;;0.87;0.60;;;;;;;-143.84;56.37;45075.72;5111025;28;20458;-59
2023/10/10 02:59:50;;;;;;;1.00;0.80;;;;;;;-143.84;56.18;45068.13;5111218;28;21009;-59
2023/10/10 03:02:20;;;;;;;1.07;0.60;;;;;;;-143.84;55.88;45083.34;5111826;28;20933;-59
2023/10/10 03:07:31;;;;;;;5.13;0.50;;;;;;;-143.84;54.69;45068.13;5111034;28;21011;-59
2023/10/10 03:10:22;;;;;;;0.80;0.50;;;;;;;-143.84;54.50;45071.91;5111269;28;20441;-59
2023/10/10 03:12:51;;;;;;;0.80;0.40;;;;;;;-143.84;53.58;45060.50;5111433;28;20427;-59
2023/10/10 03:15:32;;;;;;;0.80;0.40;;;;;;;-143.84;52.53;45070.00;5111486;28;20518;-59
2023/10/10 03:21:12;;;;;;;0.80;0.40;;;;;;;-143.84;50.82;45068.13;5110089;28;20584;-60
2023/10/10 03:23:52;;;;;;;0.80;0.50;;;;;;;-143.84;50.71;45092.88;5110161;28;20441;-60
2023/10/10 03:26:51;;;;;;;1.03;0.50;;;;;;;-143.84;50.34;45058.59;5109731;28;20479;-60
2023/10/10 03:29:11;;;;;;;0.80;0.60;;;;;;;-143.84;49.62;45071.91;5087330;28;20969;-60
2023/10/10 03:31:42;;;;;;;0.80;0.40;;;;;;;-143.84;49.85;45083.34;5089670;28;20451;-60
2023/10/10 03:34:19;;;;;;;1.10;0.50;;;;;;;-143.84;49.52;45075.72;5089857;28;20971;-60
2023/10/10 03:37:04;;;;;;;4.60;0.77;;;;;;;-143.84;48.90;45083.34;5093263;28;20948;-60
2023/10/10 03:39:44;;;;;;;0.80;0.60;;;;;;;-143.84;49.37;45054.78;5093688;28;20428;-59
2023/10/10 05:24:08;;;;;;;0.80;0.40;;;;;;;-143.84;47.96;45070.00;5112183;28;20961;-60
2023/10/10 05:26:46;;;;;;;1.47;0.50;;;;;;;-143.84;47.66;45087.16;5111630;28;20513;-58
2023/10/10 05:29:13;;;;;;;0.80;0.50;;;;;;;-143.84;47.15;45062.41;5111197;28;20443;-61
2023/10/10 05:31:44;;;;;;;0.80;0.40;;;;;;;-143.84;46.91;45071.91;5111726;28;20450;-61
2023/10/10 05:34:14;;;;;;;0.80;0.40;;;;;;;-143.84;46.29;45054.78;5111566;28;20439;-61
2023/10/10 05:36:44;;;;;;;1.43;1.13;;;;;;;-143.84;45.72;45062.41;5111750;28;20476;-61
2023/10/10 05:39:17;;;;;;;0.80;0.50;;;;;;;-143.84;45.51;45045.25;5111541;28;20439;-61
2023/10/10 05:41:44;;;;;;;0.80;0.50;;;;;;;-143.84;45.14;45079.53;5111345;28;20482;-61
2023/10/10 05:44:13;;;;;;;0.90;0.70;;;;;;;-143.84;44.67;45056.69;5111849;28;20447;-61
2023/10/10 05:46:40;;;;;;;0.80;0.40;;;;;;;-143.84;44.30;45050.97;5112180;28;20478;-61
2023/10/10 05:49:08;;;;;;;0.90;0.50;;;;;;;-143.84;44.16;45070.00;5112101;28;20533;-61
2023/10/10 05:51:35;;;;;;;0.80;0.40;;;;;;;-143.84;43.39;45033.84;5112004;28;20434;-61
2023/10/10 05:54:04;;;;;;;0.80;0.40;;;;;;;-143.84;42.28;45045.25;5112099;28;20914;-61
2023/10/10 05:56:34;;;;;;;0.90;0.60;;;;;;;-143.84;41.10;45031.94;5111905;28;20454;-61
2023/10/10 05:59:02;;;;;;;0.90;0.50;;;;;;;-143.84;40.86;45033.84;5111141;28;20446;-58
2023/10/10 06:01:30;;;;;;;1.00;0.60;;;;;;;-143.84;40.09;45049.06;5111764;28;21028;-58
2023/10/10 06:03:57;;;;;;;2.70;0.93;;;;;;;-143.84;38.81;45030.03;5111484;28;20477;-58
2023/10/10 06:06:27;;;;;;;0.90;0.47;;;;;;;-143.84;38.95;45033.84;5111309;28;20489;-58
2023/10/10 06:09:00;;;;;;;1.10;0.50;;;;;;;-143.84;38.15;45047.16;5111447;28;20435;-59
2023/10/10 06:11:31;;;;;;;0.93;0.73;;;;;;;-143.84;37.82;45030.03;5111683;28;20443;-59
2023/10/10 06:13:58;;;;;;;0.80;0.50;;;;;;;-143.84;37.61;45016.69;5110972;28;20470;-59
2023/10/10 06:16:25;;;;;;;0.80;0.40;;;;;;;-143.84;37.58;45014.78;5111422;28;20812;-59
2023/10/10 06:18:53;;;;;;;2.50;0.87;;;;;;;-143.84;37.41;45028.13;5111798;28;20430;-59
2023/10/10 06:21:20;;;;;;;1.00;0.70;;;;;;;-143.84;36.98;45031.94;5111153;28;20839;-59
2023/10/10 06:23:49;;;;;;;0.80;0.50;;;;;;;-143.84;36.74;45033.84;5110856;28;20533;-59
2023/10/10 06:26:21;;;;;;;0.80;0.50;;;;;;;-143.84;36.07;45014.78;5110836;28;20482;-59
2023/10/10 06:28:53;;;;;;;0.90;0.60;;;;;;;-143.84;35.71;45037.66;5110217;28;20503;-60
2023/10/10 06:31:20;;;;;;;0.80;0.40;;;;;;;-143.84;35.57;45016.69;5110599;28;20439;-59
2023/10/10 06:33:49;;;;;;;0.80;0.50;;;;;;;-143.84;34.98;45014.78;5110701;28;20511;-60
2023/10/10 06:36:33;;;;;;;0.80;0.40;;;;;;;-143.84;35.25;45050.97;5110260;28;20435;-60
2023/10/10 06:39:18;;;;;;;0.80;0.40;;;;;;;-143.84;35.65;45026.22;5109843;28;20477;-60
2023/10/10 06:41:50;;;;;;;0.80;0.40;;;;;;;-143.84;35.53;45014.78;5109930;28;20513;-60
2023/10/10 06:44:31;;;;;;;0.80;0.40;;;;;;;-143.84;36.78;45022.41;5110144;28;20450;-60
2023/10/10 06:46:59;;;;;;;0.93;0.63;;;;;;;-143.84;36.26;45005.28;5109793;28;20898;-60
2023/10/10 06:49:43;;;;;;;0.80;0.40;;;;;;;-143.84;35.79;45022.41;5109913;28;20812;-60
2023/10/10 06:52:15;;;;;;;0.80;0.40;;;;;;;-143.84;35.65;45022.41;5109870;28;20558;-60
2023/10/10 06:54:44;;;;;;;0.80;0.40;;;;;;;-143.84;35.49;45022.41;5109594;28;20446;-60
2023/10/10 06:57:17;;;;;;;1.17;0.50;;;;;;;-143.84;36.07;45043.34;5109405;28;20446;-60
2023/10/10 06:59:46;;;;;;;0.80;0.47;;;;;;;-143.84;36.11;45020.50;5109726;28;20439;-60
2023/10/10 07:02:20;;;;;;;0.80;0.40;;;;;;;-143.84;36.02;45028.13;5109501;28;20464;-60
2023/10/10 07:04:52;;;;;;;0.80;0.50;;;;;;;-143.84;35.39;45018.59;5109663;28;20441;-60
2023/10/10 07:07:26;;;;;;;1.00;0.50;;;;;;;-143.84;35.87;45016.69;5109470;28;20471;-60
2023/10/10 07:09:57;;;;;;;1.20;0.60;;;;;;;-143.84;35.78;45024.31;5112715;28;20517;-58
2023/10/10 07:12:28;;;;;;;0.80;0.40;;;;;;;-143.84;35.20;45037.66;5113769;28;20443;-59
2023/10/10 07:15:00;;;;;;;1.00;0.50;;;;;;;-143.84;34.25;44999.56;5113992;28;21315;-59
2023/10/10 07:17:28;;;;;;;1.03;0.70;;;;;;;-143.84;34.24;44993.84;5114636;28;20820;-59
2023/10/10 07:22:40;;;;;;;0.80;0.50;;;;;;;-143.84;34.10;44988.13;5083192;28;20991;-59
2023/10/10 07:25:17;;;;;;;0.80;0.50;;;;;;;-143.84;34.01;45009.09;5114861;28;20435;-59
2023/10/10 07:27:45;;;;;;;2.00;0.47;;;;;;;-143.84;33.86;45007.19;5114724;28;20928;-59
2023/10/10 07:30:18;;;;;;;1.73;0.60;;;;;;;-143.84;34.39;45014.78;5114761;28;20442;-60
2023/10/10 07:32:48;;;;;;;1.73;0.90;;;;;;;-143.84;33.68;45007.19;5114568;28;20454;-59
2023/10/10 07:35:15;;;;;;;1.50;0.60;;;;;;;-143.84;33.48;44990.03;5115004;28;20517;-59
2023/10/10 07:37:43;;;;;;;0.80;0.40;;;;;;;-143.84;33.12;45022.41;5114854;28;20434;-60
2023/10/10 07:40:28;;;;;;;1.00;0.67;;;;;;;-143.84;33.52;45024.31;5114475;28;20481;-60
2023/10/10 07:42:59;;;;;;;1.00;0.50;;;;;;;-143.84;33.34;45014.78;5114260;28;20539;-60
2023/10/10 07:45:29;;;;;;;0.80;0.40;;;;;;;-143.84;33.14;44991.94;5114395;28;20449;-60
2023/10/10 07:50:48;;;;;;;0.80;0.50;;;;;;;-143.84;32.54;44971.00;5113944;28;20492;-61
2023/10/10 07:53:17;;;;;;;0.80;0.50;;;;;;;-143.84;33.38;45010.97;5113497;28;20472;-61
2023/10/10 07:55:59;;;;;;;0.80;0.40;;;;;;;-143.84;32.92;45022.41;5113185;28;20474;-61
2023/10/10 07:58:42;;;;;;;4.40;0.73;;;;;;;-143.84;34.74;45010.97;5113351;28;20964;-61
2023/10/10 08:01:16;;;;;;;1.67;0.50;;;;;;;-143.84;33.79;44997.66;5113241;28;20450;-61
2023/10/10 08:03:45;;;;;;;0.80;0.40;;;;;;;-143.84;32.12;44999.56;5113435;28;20435;-61
2023/10/10 08:06:16;;;;;;;0.80;0.40;;;;;;;-143.84;33.35;44995.75;5113370;28;20462;-61
2023/10/10 08:08:48;;;;;;;0.80;0.40;;;;;;;-143.84;32.42;45007.19;5113253;28;20501;-61
2023/10/10 08:11:35;;;;;;;2.50;0.70;;;;;;;-143.84;32.46;44982.41;5113066;28;20431;-61
2023/10/10 08:14:06;;;;;;;0.80;0.40;;;;;;;-143.84;32.25;44969.09;5112929;28;20454;-61
2023/10/10 08:16:35;;;;;;;0.90;0.50;;;;;;;-143.84;32.32;44971.00;5113241;28;20473;-61
2023/10/10 08:19:08;;;;;;;1.00;0.63;;;;;;;-143.84;31.38;44963.38;5112910;28;20439;-61
2023/10/10 08:21:38;;;;;;;0.90;0.57;;;;;;;-143.84;31.37;44990.03;5112053;28;20431;-61
2023/10/10 08:24:08;;;;;;;0.80;0.30;;;;;;;-143.84;31.67;44963.38;5112972;28;20471;-61
2023/10/10 08:26:41;;;;;;;0.90;0.47;;;;;;;-143.84;31.92;44984.31;5112561;28;20435;-61
2023/10/10 08:29:09;;;;;;;0.80;0.40;;;;;;;-143.84;31.37;44974.81;5112821;28;20442;-61
2023/10/10 08:31:39;;;;;;;1.60;0.70;;;;;;;-143.84;31.43;44974.81;5112728;28;20454;-61
2023/10/10 08:34:09;;;;;;;0.80;0.40;;;;;;;-143.84;31.50;44963.38;5112631;28;20451;-61
2023/10/10 08:36:38;;;;;;;0.90;0.40;;;;;;;-143.84;30.88;44984.31;5112461;28;20445;-61
2023/10/10 08:39:25;;;;;;;0.90;0.40;;;;;;;-143.84;30.66;44976.72;5112351;28;20933;-61
2023/10/10 08:41:53;;;;;;;0.80;0.50;;;;;;;-143.84;31.16;44957.66;5112289;28;20958;-61
2023/10/10 08:44:21;;;;;;;1.00;0.60;;;;;;;-143.84;31.37;44959.56;5112459;28;20439;-61
2023/10/10 08:46:52;;;;;;;1.00;0.70;;;;;;;-143.84;30.76;44978.63;5112263;28;20454;-61
2023/10/10 08:49:20;;;;;;;0.80;0.40;;;;;;;-143.84;30.72;44942.44;5112186;28;20443;-61
2023/10/10 08:51:48;;;;;;;0.80;0.40;;;;;;;-143.84;29.97;44927.19;5112491;28;20439;-61
2023/10/10 08:54:16;;;;;;;0.80;0.40;;;;;;;-143.84;30.34;44944.34;5112401;28;20771;-61
2023/10/10 08:56:59;;;;;;;1.00;0.50;;;;;;;-143.84;29.64;44936.72;5112200;28;20445;-61
2023/10/10 08:59:28;;;;;;;0.80;0.30;;;;;;;-143.84;29.94;44978.63;5111652;28;20435;-61
2023/10/10 09:01:57;;;;;;;0.87;0.40;;;;;;;-143.84;29.85;44934.81;5111537;28;20446;-61
2023/10/10 09:04:30;;;;;;;0.90;0.50;;;;;;;-143.84;29.74;44955.75;5111438;28;20435;-61
2023/10/10 09:07:00;;;;;;;0.80;0.40;;;;;;;-143.84;29.97;44974.81;5111836;28;20848;-61
2023/10/10 09:09:39;;;;;;;0.90;0.70;;;;;;;-143.84;29.92;44971.00;5111644;28;20490;-61
2023/10/10 09:12:14;;;;;;;2.40;0.50;;;;;;;-143.84;30.44;44976.72;5111466;28;20427;-61
2023/10/10 09:14:43;;;;;;;0.90;0.40;;;;;;;-143.84;31.07;44969.09;5111271;28;20449;-61
2023/10/10 09:17:12;;;;;;;0.80;0.40;;;;;;;-143.84;30.64;44988.13;5111580;28;20504;-61
2023/10/10 09:19:47;;;;;;;0.80;0.40;;;;;;;-143.84;31.05;44969.09;5111783;28;20439;-61
2023/10/10 09:22:28;;;;;;;0.80;0.30;;;;;;;-143.84;31.51;44984.31;5111505;28;20491;-61
2023/10/10 09:24:56;;;;;;;0.80;0.50;;;;;;;-143.84;31.83;44976.72;5111601;28;20543;-61
2023/10/10 09:27:27;;;;;;;0.97;0.80;;;;;;;-143.84;31.24;44976.72;5111658;28;20514;-61
2023/10/10 09:29:57;;;;;;;1.00;0.70;;;;;;;-143.84;31.97;44993.84;5111619;28;20435;-61
2023/10/10 09:32:42;;;;;;;0.90;0.60;;;;;;;-143.84;32.29;44978.63;5111426;28;20514;-62
2023/10/10 09:35:09;;;;;;;0.80;0.50;;;;;;;-143.84;32.00;44967.19;5111505;28;20454;-61
2023/10/10 09:37:42;;;;;;;0.80;0.40;;;;;;;-143.84;32.57;44991.94;5111162;28;20440;-61
2023/10/10 09:40:16;;;;;;;0.80;0.40;;;;;;;-143.84;32.88;45010.97;5111368;28;20471;-61
2023/10/10 09:43:03;;;;;;;1.00;0.53;;;;;;;-143.84;32.20;44974.81;5110726;28;21091;-61
2023/10/10 09:49:16;;;;;;;0.80;0.43;;;;;;;-143.84;31.21;44990.03;5104993;28;20494;-61
2023/10/10 09:54:25;;;;;;;0.80;0.40;;;;;;;-143.84;31.61;44976.72;5110744;28;20579;-61
2023/10/10 09:56:56;;;;;;;0.90;0.63;;;;;;;-143.84;31.35;44965.28;5110477;28;20438;-61
2023/10/10 09:59:28;;;;;;;0.90;0.50;;;;;;;-143.84;31.22;44988.13;5110784;28;20822;-61
2023/10/10 10:02:04;;;;;;;0.80;0.50;;;;;;;-143.84;31.20;44967.19;5110713;28;20439;-61
2023/10/10 10:04:41;;;;;;;0.80;0.40;;;;;;;-143.84;31.63;44988.13;5111010;28;20455;-61
2023/10/10 10:07:37;;;;;;;0.80;0.40;;;;;;;-143.84;31.95;44967.19;5110768;28;20443;-61
2023/10/10 10:10:34;;;;;;;0.80;0.40;;;;;;;-143.84;31.10;44938.63;5110760;28;20443;-61
2023/10/10 10:13:19;;;;;;;0.90;0.50;;;;;;;-143.84;31.42;44971.00;5110818;28;20451;-61
2023/10/10 10:16:19;;;;;;;0.80;0.40;;;;;;;-143.84;31.07;45003.38;5110765;28;20446;-61
2023/10/10 10:18:52;;;;;;;0.80;0.40;;;;;;;-143.84;31.41;44990.03;5099074;28;20451;-61
2023/10/10 10:21:30;;;;;;;0.80;0.43;;;;;;;-143.84;31.55;44982.41;5110466;28;20443;-61
2023/10/10 10:24:15;;;;;;;1.47;0.60;;;;;;;-143.84;31.87;44965.28;5110709;28;20443;-61
2023/10/10 10:26:45;;;;;;;0.80;0.50;;;;;;;-143.84;32.48;44984.31;5110798;28;20518;-61
2023/10/10 10:29:22;;;;;;;0.80;0.50;;;;;;;-143.84;32.02;44963.38;5110443;28;20485;-61
2023/10/10 10:31:57;;;;;;;0.90;0.50;;;;;;;-143.84;30.44;44957.66;5110562;28;20449;-61
2023/10/10 10:34:31;;;;;;;0.80;0.40;;;;;;;-143.84;31.64;44969.09;5110505;28;20442;-61
2023/10/10 10:37:06;;;;;;;0.80;0.40;;;;;;;-143.84;31.83;44965.28;5110272;28;20439;-61
2023/10/10 10:39:36;;;;;;;3.53;1.27;;;;;;;-143.84;31.60;44972.91;5110490;28;20455;-61
2023/10/10 10:42:11;;;;;;;0.83;0.50;;;;;;;-143.84;31.47;44969.09;5110489;28;20485;-61
2023/10/10 10:44:54;;;;;;;1.10;0.80;;;;;;;-143.84;31.78;44980.53;5110173;28;20451;-61
2023/10/10 10:47:47;;;;;;;0.90;0.60;;;;;;;-143.84;32.32;44984.31;5110369;28;20443;-61
2023/10/10 10:50:40;;;;;;;0.90;0.50;;;;;;;-143.84;31.62;44965.28;5110433;28;20451;-61
2023/10/10 10:53:20;;;;;;;0.80;0.50;;;;;;;-143.84;31.35;44982.41;5110361;28;20447;-62
2023/10/10 10:56:06;;;;;;;0.80;0.40;;;;;;;-143.84;31.45;44980.53;5110668;28;21003;-62
2023/10/10 10:58:47;;;;;;;0.83;0.43;;;;;;;-143.84;31.06;44976.72;5110356;28;20457;-62
2023/10/10 11:01:16;;;;;;;0.80;0.37;;;;;;;-143.84;32.12;44969.09;5110467;28;20976;-61
2023/10/10 11:03:44;;;;;;;0.80;0.33;;;;;;;-143.84;31.56;44995.75;5110169;28;20840;-61
2023/10/10 11:06:14;;;;;;;0.80;0.40;;;;;;;-143.84;32.09;45005.28;5110327;28;20454;-61
2023/10/10 11:08:53;;;;;;;0.87;0.50;;;;;;;-143.84;31.92;44969.09;5110116;28;20489;-61
2023/10/10 11:11:27;;;;;;;1.00;0.57;;;;;;;-143.84;31.99;44976.72;5102322;28;20450;-61
2023/10/10 11:14:00;;;;;;;0.90;0.50;;;;;;;-143.84;31.91;45003.38;5090195;28;20436;-61
2023/10/10 11:16:36;;;;;;;0.80;0.37;;;;;;;-143.84;32.49;44963.38;5089792;28;20428;-61
2023/10/10 11:19:11;;;;;;;0.90;0.60;;;;;;;-143.84;31.94;44980.53;5089783;28;20805;-61
2023/10/10 11:21:47;;;;;;;1.10;0.53;;;;;;;-143.84;32.27;44997.66;5089605;28;20430;-61
2023/10/10 11:24:23;;;;;;;4.00;0.70;;;;;;;-143.84;32.89;45005.28;5089664;28;20444;-61
2023/10/10 11:27:02;;;;;;;0.80;0.40;;;;;;;-143.84;32.66;45007.19;5089161;28;20443;-61
2023/10/10 11:29:29;;;;;;;1.17;0.50;;;;;;;-143.84;33.10;44991.94;5089621;28;20471;-61
2023/10/10 11:32:06;;;;;;;0.90;0.50;;;;;;;-143.84;33.83;45001.47;5089750;28;20937;-61
2023/10/10 11:34:42;;;;;;;0.80;0.43;;;;;;;-143.84;32.97;44990.03;5089371;28;20471;-61
2023/10/10 11:37:20;;;;;;;0.80;0.30;;;;;;;-143.84;33.40;44978.63;5089482;28;20436;-61
2023/10/10 11:39:53;;;;;;;0.80;0.40;;;;;;;-143.84;33.54;44986.22;5089496;28;20519;-61
2023/10/10 11:42:30;;;;;;;0.80;0.40;;;;;;;-143.84;33.05;44980.53;5089104;28;20861;-61
2023/10/10 11:45:05;;;;;;;0.90;0.60;;;;;;;-143.84;33.63;44993.84;5089540;28;20849;-61
2023/10/10 11:47:42;;;;;;;0.80;0.50;;;;;;;-143.84;33.19;45009.09;5089340;28;20442;-61
2023/10/10 11:50:12;;;;;;;0.80;0.50;;;;;;;-143.84;33.88;44986.22;5089738;28;20498;-61
2023/10/10 11:52:51;;;;;;;0.80;0.40;;;;;;;-143.84;34.01;45007.19;5088818;28;20432;-60
2023/10/10 11:55:20;;;;;;;1.60;0.63;;;;;;;-143.84;33.28;44969.09;5088444;28;20971;-60
2023/10/10 11:57:49;;;;;;;0.80;0.40;;;;;;;-143.84;32.71;45003.38;5092925;28;20444;-59
2023/10/10 12:00:22;;;;;;;0.80;0.30;;;;;;;-143.84;32.76;44984.31;5093069;28;20448;-60
2023/10/10 12:02:50;;;;;;;1.00;0.70;;;;;;;-143.84;33.25;44972.91;5092528;28;20451;-60
2023/10/10 12:08:07;;;;;;;0.80;0.40;;;;;;;-143.84;33.75;45010.97;5076947;28;20996;-60
2023/10/10 12:10:47;;;;;;;0.90;0.60;;;;;;;-143.84;34.11;44988.13;5092411;28;20444;-60
2023/10/10 12:13:33;;;;;;;0.93;0.40;;;;;;;-143.84;33.58;44971.00;5092741;28;20443;-60
2023/10/10 12:16:01;;;;;;;0.80;0.40;;;;;;;-143.84;33.39;44999.56;5092819;28;20440;-60
2023/10/10 12:18:30;;;;;;;0.80;0.40;;;;;;;-143.84;34.57;45003.38;5092712;28;20454;-60
2023/10/10 12:20:58;;;;;;;0.80;0.40;;;;;;;-143.84;33.98;45022.41;5092667;28;20527;-60
2023/10/10 12:23:25;;;;;;;0.80;0.30;;;;;;;-143.84;34.20;44984.31;5092631;28;20428;-60
2023/10/10 12:25:55;;;;;;;0.80;0.40;;;;;;;-143.84;34.74;44993.84;5092612;28;20432;-60
2023/10/10 12:28:22;;;;;;;2.90;0.80;;;;;;;-143.84;34.47;44971.00;5092674;28;20495;-60
2023/10/10 12:30:50;;;;;;;1.33;0.70;;;;;;;-143.84;34.06;44999.56;5092725;28;20509;-60
2023/10/10 12:33:17;;;;;;;0.90;0.60;;;;;;;-143.84;33.97;45005.28;5092601;28;20436;-60
2023/10/10 12:35:47;;;;;;;0.90;0.60;;;;;;;-143.84;34.17;44976.72;5092435;28;20930;-60
2023/10/10 12:38:20;;;;;;;0.80;0.40;;;;;;;-143.84;34.20;45003.38;5092578;28;20440;-60
2023/10/10 12:40:48;;;;;;;0.90;0.57;;;;;;;-143.84;33.54;44995.75;5092106;28;20487;-60
2023/10/10 12:43:17;;;;;;;0.80;0.50;;;;;;;-143.84;33.84;44999.56;5111663;28;20518;-60
2023/10/10 12:45:45;;;;;;;0.80;0.40;;;;;;;-143.84;33.25;44982.41;5112581;28;20500;-60
2023/10/10 12:48:20;;;;;;;0.80;0.40;;;;;;;-143.84;33.90;44980.53;5112356;28;20506;-59
2023/10/10 12:50:48;;;;;;;0.87;0.57;;;;;;;-143.84;33.21;45024.31;5112744;28;20522;-60
2023/10/10 12:53:18;;;;;;;1.00;0.87;;;;;;;-143.84;34.14;45001.47;5112708;28;20434;-60
2023/10/10 12:55:51;;;;;;;1.83;0.63;;;;;;;-143.84;33.11;44991.94;5112541;28;20528;-59
2023/10/10 12:58:20;;;;;;;0.80;0.47;;;;;;;-143.84;33.38;45009.09;5112569;28;20454;-60
2023/10/10 13:00:51;;;;;;;0.80;0.40;;;;;;;-143.84;33.41;44997.66;5112107;28;20447;-60
2023/10/10 13:03:27;;;;;;;0.90;0.50;;;;;;;-143.84;34.08;45003.38;5112411;28;20504;-60
2023/10/10 13:05:58;;;;;;;0.80;0.50;;;;;;;-143.84;33.51;45001.47;5112381;28;20446;-60
2023/10/10 13:08:38;;;;;;;0.80;0.40;;;;;;;-143.84;33.52;44991.94;5112375;28;20552;-60
2023/10/10 13:11:12;;;;;;;1.07;0.97;;;;;;;-143.84;34.09;44991.94;5112402;28;20924;-60
2023/10/10 13:13:46;;;;;;;0.80;0.50;;;;;;;-143.84;33.74;45012.88;5112604;28;20530;-60
2023/10/10 13:16:37;;;;;;;1.10;0.60;;;;;;;-143.84;33.74;45030.03;5112499;28;20550;-60
2023/10/10 13:19:06;;;;;;;0.80;0.50;;;;;;;-143.84;34.59;45024.31;5112305;28;20451;-59
2023/10/10 13:21:34;;;;;;;0.90;0.50;;;;;;;-143.84;34.36;45014.78;5111925;28;20446;-59
2023/10/10 13:24:03;;;;;;;1.63;0.63;;;;;;;-143.84;33.91;45030.03;5111931;28;20443;-60
2023/10/10 13:26:31;;;;;;;0.80;0.40;;;;;;;-143.84;34.34;45037.66;5111968;28;20431;-60
2023/10/10 13:29:01;;;;;;;0.80;0.60;;;;;;;-143.84;34.62;45007.19;5111838;28;20900;-60
2023/10/10 13:31:29;;;;;;;0.90;0.43;;;;;;;-143.84;34.26;45016.69;5111963;28;20941;-60
2023/10/10 13:33:57;;;;;;;0.90;0.50;;;;;;;-143.84;34.38;45026.22;5111813;28;20443;-60
2023/10/10 13:36:25;;;;;;;0.80;0.30;;;;;;;-143.84;34.65;45024.31;5111868;28;20504;-60
2023/10/10 13:38:57;;;;;;;0.90;0.50;;;;;;;-143.84;34.06;45026.22;5111930;28;20531;-60
2023/10/10 13:41:27;;;;;;;1.00;0.50;;;;;;;-143.84;34.39;45031.94;5111485;28;20807;-60
2023/10/10 13:43:59;;;;;;;0.80;0.40;;;;;;;-143.84;34.05;45012.88;5111800;28;20951;-59
2023/10/10 13:46:28;;;;;;;0.90;0.63;;;;;;;-143.84;34.43;45033.84;5111724;28;20861;-60
2023/10/10 13:48:55;;;;;;;0.80;0.40;;;;;;;-143.84;34.39;45037.66;5111392;28;20470;-60